createdAt,value
2023-01-13T00:01:26.101Z,30.35
2023-01-13T00:03:53.810Z,30.00
2023-01-13T00:06:25.827Z,29.23
2023-01-13T00:08:54.553Z,30.73
2023-01-13T00:11:22.483Z,31.27
2023-01-13T00:13:49.952Z,29.83
2023-01-13T00:16:19.101Z,34.10
2023-01-13T00:18:47.342Z,32.63
2023-01-13T00:21:20.686Z,32.83
2023-01-13T00:23:48.492Z,33.00
2023-01-13T00:26:23.658Z,33.28
2023-01-13T00:28:51.446Z,34.35
2023-01-13T00:31:21.352Z,31.70
2023-01-13T00:33:51.934Z,32.95
2023-01-13T00:36:20.872Z,34.95
2023-01-13T00:38:48.884Z,31.45
2023-01-13T00:41:24.102Z,32.35
2023-01-13T00:43:51.537Z,32.80
2023-01-13T00:46:21.438Z,33.90
2023-01-13T00:48:49.761Z,31.10
2023-01-13T00:51:20.114Z,29.52
2023-01-13T00:53:50.566Z,31.90
2023-01-13T00:56:34.074Z,30.40
2023-01-13T00:59:10.069Z,31.80
2023-01-13T01:01:38.166Z,31.98
2023-01-13T01:04:06.770Z,28.45
2023-01-13T01:06:34.464Z,30.25
2023-01-13T01:09:02.555Z,29.42
2023-01-13T01:11:32.023Z,31.48
2023-01-13T01:14:02.468Z,30.88
2023-01-13T01:16:31.876Z,29.85
2023-01-13T01:19:00.463Z,30.77
2023-01-13T01:21:29.028Z,34.03
2023-01-13T01:24:00.271Z,29.38
2023-01-13T01:26:29.705Z,28.50
2023-01-13T01:28:58.020Z,29.27
2023-01-13T01:31:31.548Z,28.23
2023-01-13T01:34:00.596Z,29.55
2023-01-13T01:36:32.247Z,34.08
2023-01-13T01:39:00.253Z,32.10
2023-01-13T01:41:31.763Z,30.35
2023-01-13T01:44:24.247Z,28.83
2023-01-13T01:46:52.408Z,30.20
2023-01-13T01:49:24.669Z,32.53
2023-01-13T01:51:54.294Z,32.78
2023-01-13T01:54:28.784Z,34.35
2023-01-13T01:56:56.567Z,31.13
2023-01-13T01:59:32.170Z,32.42
2023-01-13T02:02:00.650Z,30.13
2023-01-13T02:04:32.881Z,28.65
2023-01-13T02:07:02.430Z,30.52
2023-01-13T02:09:30.555Z,30.52
2023-01-13T02:12:16.920Z,35.05
2023-01-13T02:14:45.961Z,28.20
2023-01-13T02:17:41.141Z,36.47
2023-01-13T02:20:20.531Z,31.75
2023-01-13T02:23:35.451Z,31.80
2023-01-13T02:26:25.406Z,31.20
2023-01-13T02:29:17.767Z,30.98
2023-01-13T02:31:48.856Z,30.95
2023-01-13T02:34:29.813Z,34.50
2023-01-13T02:37:08.548Z,32.55
2023-01-13T02:39:49.162Z,33.88
2023-01-13T02:42:54.389Z,34.45
2023-01-13T02:45:30.451Z,35.10
2023-01-13T02:48:01.962Z,33.50
2023-01-13T02:50:36.043Z,31.50
2023-01-13T02:53:23.084Z,33.80
2023-01-13T02:55:54.326Z,31.52
2023-01-13T02:58:26.884Z,34.10
2023-01-13T03:00:55.484Z,33.63
2023-01-13T03:03:23.630Z,31.35
2023-01-13T03:05:59.851Z,35.15
2023-01-13T03:08:49.253Z,35.50
2023-01-13T03:11:19.197Z,36.50
2023-01-13T03:14:05.566Z,35.13
2023-01-13T03:16:53.665Z,29.67
2023-01-13T03:19:31.277Z,34.90
2023-01-13T03:22:18.241Z,33.60
2023-01-13T03:25:02.789Z,31.15
2023-01-13T03:27:44.191Z,33.75
2023-01-13T03:30:32.849Z,34.40
2023-01-13T03:33:07.090Z,35.67
2023-01-13T03:35:40.454Z,30.30
2023-01-13T03:38:30.148Z,29.42
2023-01-13T03:41:01.796Z,34.03
2023-01-13T03:43:53.945Z,34.50
2023-01-13T03:46:52.059Z,31.40
2023-01-13T03:49:24.161Z,30.83
2023-01-13T03:52:02.091Z,30.30
2023-01-13T03:54:33.007Z,31.63
2023-01-13T03:57:10.722Z,32.08
2023-01-13T03:59:44.360Z,30.25
2023-01-13T04:02:27.427Z,35.17
2023-01-13T04:05:03.026Z,35.03
2023-01-13T04:07:40.620Z,35.35
2023-01-13T04:10:10.419Z,35.67
2023-01-13T04:13:06.899Z,33.92
2023-01-13T04:18:23.848Z,32.28
2023-01-13T04:20:54.031Z,34.05
2023-01-13T04:23:22.972Z,34.92
2023-01-13T04:25:53.741Z,34.78
2023-01-13T04:28:21.947Z,34.47
2023-01-13T04:30:49.844Z,38.47
2023-01-13T04:33:19.155Z,36.22
2023-01-13T04:35:48.010Z,33.00
2023-01-13T04:38:18.080Z,37.72
2023-01-13T04:40:45.719Z,37.22
2023-01-13T04:43:13.639Z,34.88
2023-01-13T04:45:42.569Z,32.97
2023-01-13T04:48:10.669Z,35.55
2023-01-13T04:50:38.388Z,34.35
2023-01-13T04:53:06.132Z,35.13
2023-01-13T04:55:33.792Z,31.08
2023-01-13T04:58:05.973Z,34.97
2023-01-13T05:00:33.904Z,39.28
2023-01-13T05:03:01.671Z,33.45
2023-01-13T05:05:31.020Z,34.67
2023-01-13T05:07:58.564Z,37.22
2023-01-13T05:10:27.420Z,34.35
2023-01-13T05:13:13.830Z,34.13
2023-01-13T05:16:01.007Z,36.85
2023-01-13T05:18:29.914Z,39.55
2023-01-13T05:20:58.172Z,35.10
2023-01-13T05:23:44.267Z,34.60
2023-01-13T05:28:39.154Z,33.50
2023-01-13T05:31:06.729Z,32.88
2023-01-13T05:33:36.123Z,34.50
2023-01-13T05:36:04.445Z,34.90
2023-01-13T05:38:32.129Z,35.03
2023-01-13T05:41:18.983Z,34.60
2023-01-13T05:43:49.301Z,36.05
2023-01-13T05:46:17.924Z,28.15
2023-01-13T05:48:45.791Z,29.38
2023-01-13T05:51:14.464Z,31.88
2023-01-13T05:53:42.149Z,28.65
2023-01-13T05:56:10.807Z,31.00
2023-01-13T05:58:38.784Z,29.23
2023-01-13T06:01:08.733Z,30.23
2023-01-13T06:03:37.529Z,30.27
2023-01-13T06:06:05.055Z,30.88
2023-01-13T06:08:32.917Z,26.67
2023-01-13T06:11:00.433Z,26.60
2023-01-13T06:13:28.267Z,24.35
2023-01-13T06:15:57.796Z,24.15
2023-01-13T06:18:26.514Z,26.55
2023-01-13T06:20:54.094Z,26.88
2023-01-13T06:23:21.720Z,29.75
2023-01-13T06:26:20.275Z,27.13
2023-01-13T06:28:47.904Z,28.70
2023-01-13T06:31:33.687Z,24.60
2023-01-13T06:34:14.719Z,28.75
2023-01-13T06:36:47.901Z,24.95
2023-01-13T06:39:19.251Z,26.83
2023-01-13T06:42:07.633Z,25.15
2023-01-13T06:44:35.334Z,28.92
2023-01-13T06:47:03.283Z,23.65
2023-01-13T06:49:30.754Z,27.77
2023-01-13T06:51:58.222Z,28.65
2023-01-13T06:54:27.695Z,28.58
2023-01-13T06:56:55.233Z,29.00
2023-01-13T06:59:22.904Z,27.95
2023-01-13T07:01:50.427Z,27.05
2023-01-13T07:04:18.952Z,31.52
2023-01-13T07:06:46.376Z,29.00
2023-01-13T07:09:13.810Z,29.27
2023-01-13T07:11:41.251Z,31.90
2023-01-13T07:14:27.640Z,31.50
2023-01-13T07:16:55.147Z,32.28
2023-01-13T07:19:24.093Z,32.47
2023-01-13T07:21:52.801Z,26.10
2023-01-13T07:24:20.943Z,24.60
2023-01-13T07:26:48.634Z,29.42
2023-01-13T07:29:16.117Z,32.90
2023-01-13T07:31:43.663Z,36.88
2023-01-13T07:34:11.180Z,30.27
2023-01-13T07:36:39.387Z,31.42
2023-01-13T07:39:06.902Z,35.92
2023-01-13T07:41:52.780Z,30.77
2023-01-13T07:44:20.156Z,38.95
2023-01-13T07:46:47.603Z,33.63
2023-01-13T07:49:15.155Z,30.05
2023-01-13T07:51:42.825Z,33.85
2023-01-13T07:54:10.269Z,33.83
2023-01-13T07:56:37.724Z,35.55
2023-01-13T07:59:05.245Z,33.30
2023-01-13T08:01:32.792Z,32.05
2023-01-13T08:04:00.388Z,31.08
2023-01-13T08:06:27.963Z,32.15
2023-01-13T08:08:55.512Z,35.60
2023-01-13T08:11:23.735Z,35.92
2023-01-13T08:13:55.773Z,31.92
2023-01-13T08:16:24.422Z,35.95
2023-01-13T08:18:52.056Z,40.60
2023-01-13T08:21:19.840Z,42.47
2023-01-13T08:23:47.635Z,42.42
2023-01-13T08:26:17.846Z,40.17
2023-01-13T08:28:45.923Z,39.22
2023-01-13T08:31:16.524Z,43.05
2023-01-13T08:33:44.309Z,40.78
2023-01-13T08:36:12.702Z,39.75
2023-01-13T08:38:41.202Z,50.25
2023-01-13T08:41:11.368Z,38.38
2023-01-13T08:43:38.906Z,37.38
2023-01-13T08:46:06.732Z,37.70
2023-01-13T08:48:34.574Z,36.38
2023-01-13T08:51:07.014Z,37.65
2023-01-13T08:53:34.929Z,40.30
2023-01-13T08:56:02.454Z,37.97
2023-01-13T08:58:29.980Z,50.70
2023-01-13T09:00:57.638Z,52.97
2023-01-13T09:03:25.221Z,50.95
2023-01-13T09:05:52.735Z,47.40
2023-01-13T09:08:20.489Z,40.40
2023-01-13T09:10:48.024Z,33.67
2023-01-13T09:13:17.186Z,35.63
2023-01-13T09:15:46.211Z,39.00
2023-01-13T09:18:13.750Z,33.55
2023-01-13T09:20:41.576Z,32.25
2023-01-13T09:23:10.908Z,36.78
2023-01-13T09:25:39.732Z,29.63
2023-01-13T09:28:08.637Z,27.20
2023-01-13T09:30:37.150Z,28.33
2023-01-13T09:33:23.572Z,32.60
2023-01-13T09:35:51.171Z,34.60
2023-01-13T09:38:18.629Z,31.55
2023-01-13T09:40:49.071Z,34.08
2023-01-13T09:43:40.467Z,30.27
2023-01-13T09:46:40.175Z,27.02
2023-01-13T09:49:20.487Z,28.50
2023-01-13T09:51:58.693Z,28.30
2023-01-13T09:54:33.711Z,29.33
2023-01-13T09:57:01.431Z,27.45
2023-01-13T09:59:34.758Z,26.90
2023-01-13T10:02:04.901Z,28.35
2023-01-13T10:04:32.417Z,31.00
2023-01-13T10:07:03.744Z,25.88
2023-01-13T10:09:53.355Z,25.23
2023-01-13T10:12:43.247Z,27.63
2023-01-13T10:15:21.473Z,26.55
2023-01-13T10:17:56.662Z,24.95
2023-01-13T10:20:36.247Z,28.92
2023-01-13T10:23:18.637Z,25.52
2023-01-13T10:25:48.950Z,26.92
2023-01-13T10:28:20.220Z,25.75
2023-01-13T10:30:48.001Z,33.13
2023-01-13T10:33:22.040Z,60.83
2023-01-13T10:35:59.693Z,71.15
2023-01-13T10:38:38.925Z,127.20
2023-01-13T10:41:12.223Z,51.80
2023-01-13T10:43:39.877Z,36.85
2023-01-13T10:46:11.944Z,50.03
2023-01-13T10:48:40.986Z,59.60
2023-01-13T10:51:14.230Z,55.53
2023-01-13T10:54:11.590Z,56.65
2023-01-13T10:56:41.364Z,38.50
2023-01-13T10:59:26.981Z,41.95
2023-01-13T11:02:13.267Z,45.38
2023-01-13T11:04:53.036Z,49.25
2023-01-13T11:07:32.093Z,41.58
2023-01-13T11:10:21.089Z,35.97
2023-01-13T11:12:54.533Z,37.83
2023-01-13T11:15:28.755Z,33.35
2023-01-13T11:18:00.864Z,35.42
2023-01-13T11:20:33.832Z,45.42
2023-01-13T11:23:08.481Z,33.10
2023-01-13T11:25:43.607Z,34.58
2023-01-13T11:28:29.503Z,32.83
2023-01-13T11:33:36.795Z,29.38
2023-01-13T11:36:28.851Z,29.52
2023-01-13T11:39:02.199Z,37.53
2023-01-13T11:41:38.367Z,36.00
2023-01-13T11:44:14.663Z,43.25
2023-01-13T11:46:42.340Z,29.02
2023-01-13T11:49:33.775Z,39.50
2023-01-13T11:52:14.698Z,35.25
2023-01-13T11:54:54.517Z,32.72
2023-01-13T11:57:34.585Z,32.63
2023-01-13T12:00:07.724Z,32.15
2023-01-13T12:03:00.739Z,35.00
2023-01-13T12:05:42.464Z,30.92
2023-01-13T12:08:11.086Z,25.98
2023-01-13T12:11:19.118Z,26.85
2023-01-13T12:14:19.668Z,26.85
2023-01-13T12:16:49.804Z,27.80
2023-01-13T12:19:28.203Z,24.77
2023-01-13T12:22:02.393Z,25.10
2023-01-13T12:24:30.152Z,29.42
2023-01-13T12:27:01.682Z,27.50
2023-01-13T12:29:33.247Z,27.70
2023-01-13T12:32:03.890Z,27.17
2023-01-13T12:34:31.400Z,25.42
2023-01-13T12:37:16.599Z,23.75
2023-01-13T12:40:00.142Z,26.92
2023-01-13T12:42:51.370Z,24.05
2023-01-13T12:45:28.489Z,26.77
2023-01-13T12:47:56.839Z,27.83
2023-01-13T12:50:24.834Z,25.15
2023-01-13T12:53:00.194Z,24.88
2023-01-13T12:55:31.269Z,27.67
2023-01-13T12:58:04.615Z,24.95
2023-01-13T13:00:40.955Z,25.52
2023-01-13T13:03:11.040Z,23.20
2023-01-13T13:06:02.678Z,21.20
2023-01-13T13:08:48.659Z,24.92
2023-01-13T13:14:14.203Z,17.58
2023-01-13T13:16:47.466Z,15.63
2023-01-13T13:19:17.671Z,13.65
2023-01-13T13:22:06.750Z,14.68
2023-01-13T13:24:36.810Z,19.90
2023-01-13T13:27:17.894Z,13.15
2023-01-13T13:30:22.928Z,15.32
2023-01-13T13:33:06.222Z,12.55
2023-01-13T13:36:00.369Z,12.90
2023-01-13T13:39:14.016Z,15.30
2023-01-13T13:42:04.065Z,13.82
2023-01-13T13:44:59.376Z,13.30
2023-01-13T13:47:38.715Z,12.85
2023-01-13T13:50:23.895Z,12.93
2023-01-13T13:53:05.384Z,10.95
2023-01-13T13:55:33.263Z,14.05
2023-01-13T13:58:01.733Z,12.02
2023-01-13T14:00:33.107Z,14.77
2023-01-13T14:03:04.104Z,11.07
2023-01-13T14:05:33.860Z,12.18
2023-01-13T14:08:10.603Z,14.43
2023-01-13T14:10:40.172Z,12.52
2023-01-13T14:13:26.577Z,12.55
2023-01-13T14:15:59.858Z,11.57
2023-01-13T14:18:29.936Z,11.57
2023-01-13T14:21:16.707Z,12.35
2023-01-13T14:23:53.485Z,12.75
2023-01-13T14:26:28.583Z,12.73
2023-01-13T14:29:04.193Z,11.18
2023-01-13T14:31:32.775Z,11.02
2023-01-13T14:34:32.658Z,12.27
2023-01-13T14:36:51.520Z,13.80
2023-01-13T14:39:19.008Z,13.98
2023-01-13T14:41:49.066Z,12.38
2023-01-13T14:44:34.276Z,12.20
2023-01-13T14:47:19.952Z,15.27
2023-01-13T14:50:03.241Z,12.80
2023-01-13T14:52:45.064Z,11.63
2023-01-13T14:55:28.560Z,13.38
2023-01-13T14:58:17.613Z,13.10
2023-01-13T15:00:45.121Z,16.40
2023-01-13T15:03:20.725Z,13.68
2023-01-13T15:05:52.787Z,14.60
2023-01-13T15:08:27.915Z,14.55
2023-01-13T15:11:01.064Z,13.80
2023-01-13T15:13:37.500Z,15.70
2023-01-13T15:16:21.198Z,16.65
2023-01-13T15:18:48.909Z,16.05
2023-01-13T15:21:17.373Z,16.80
2023-01-13T15:23:47.231Z,16.95
2023-01-13T15:26:19.963Z,17.33
2023-01-13T15:28:48.031Z,17.23
2023-01-13T15:31:16.039Z,18.83
2023-01-13T15:33:44.158Z,17.70
2023-01-13T15:36:35.497Z,17.00
2023-01-13T15:39:03.695Z,20.33
2023-01-13T15:41:49.926Z,17.40
2023-01-13T15:44:36.152Z,18.25
2023-01-13T15:47:07.433Z,21.17
2023-01-13T15:49:40.908Z,19.90
2023-01-13T15:52:29.458Z,21.60
2023-01-13T15:55:06.484Z,20.73
2023-01-13T15:57:36.865Z,20.92
2023-01-13T16:00:16.312Z,21.20
2023-01-13T16:02:44.563Z,27.38
2023-01-13T16:05:12.870Z,19.83
2023-01-13T16:07:40.652Z,22.42
2023-01-13T16:10:16.803Z,23.10
2023-01-13T16:12:46.177Z,19.77
2023-01-13T16:15:21.408Z,23.63
2023-01-13T16:17:58.583Z,21.83
2023-01-13T16:20:26.900Z,22.25
2023-01-13T16:22:54.375Z,22.30
2023-01-13T16:25:27.190Z,23.42
2023-01-13T16:27:54.730Z,23.00
2023-01-13T16:30:37.603Z,28.17
2023-01-13T16:33:05.204Z,27.00
2023-01-13T16:35:32.955Z,29.98
2023-01-13T16:38:01.124Z,29.35
2023-01-13T16:40:33.464Z,28.13
2023-01-13T16:43:03.718Z,27.45
2023-01-13T16:45:32.570Z,30.02
2023-01-13T16:48:03.499Z,27.73
2023-01-13T16:50:37.083Z,30.23
2023-01-13T16:53:04.747Z,30.95
2023-01-13T16:55:32.761Z,32.40
2023-01-13T16:58:00.264Z,30.80
2023-01-13T17:00:27.917Z,36.33
2023-01-13T17:02:55.460Z,35.10
2023-01-13T17:05:22.870Z,32.97
2023-01-13T17:07:50.606Z,30.65
2023-01-13T17:10:21.376Z,29.85
2023-01-13T17:12:48.977Z,30.23
2023-01-13T17:15:18.374Z,27.20
2023-01-13T17:17:52.007Z,31.73
2023-01-13T17:20:19.681Z,30.67
2023-01-13T17:22:49.789Z,30.27
2023-01-13T17:25:22.335Z,30.45
2023-01-13T17:27:49.928Z,33.67
2023-01-13T17:30:20.892Z,34.08
2023-01-13T17:32:48.509Z,32.47
2023-01-13T17:35:19.064Z,34.53
2023-01-13T17:37:46.930Z,32.00
2023-01-13T17:40:14.682Z,32.33
2023-01-13T17:42:42.179Z,33.58
2023-01-13T17:45:12.169Z,34.38
2023-01-13T17:47:42.104Z,38.08
2023-01-13T17:50:10.242Z,38.60
2023-01-13T17:52:37.687Z,39.20
2023-01-13T17:55:05.415Z,37.75
2023-01-13T17:57:34.885Z,42.15
2023-01-13T18:00:04.232Z,38.90
2023-01-13T18:02:39.688Z,40.75
2023-01-13T18:05:07.589Z,40.28
2023-01-13T18:07:34.967Z,37.50
2023-01-13T18:10:02.417Z,43.22
2023-01-13T18:12:29.840Z,41.80
2023-01-13T18:14:57.277Z,41.33
2023-01-13T18:17:24.742Z,39.10
2023-01-13T18:20:10.592Z,38.08
2023-01-13T18:22:56.419Z,38.15
2023-01-13T18:25:43.004Z,39.63
2023-01-13T18:28:10.487Z,36.05
2023-01-13T18:30:37.998Z,34.25
2023-01-13T18:33:05.391Z,36.47
2023-01-13T18:35:32.746Z,35.72
2023-01-13T18:38:00.130Z,37.42
2023-01-13T18:40:27.805Z,35.88
2023-01-13T18:42:55.609Z,34.47
2023-01-13T18:45:31.592Z,41.03
2023-01-13T18:48:02.188Z,38.15
2023-01-13T18:50:31.012Z,35.75
2023-01-13T18:52:58.432Z,38.03
2023-01-13T18:55:28.563Z,38.63
2023-01-13T18:57:56.452Z,36.67
2023-01-13T19:00:26.933Z,36.22
2023-01-13T19:05:35.026Z,48.72
2023-01-13T19:08:04.082Z,38.53
2023-01-13T19:10:35.409Z,42.90
2023-01-13T19:13:03.008Z,37.70
2023-01-13T19:15:30.767Z,36.25
2023-01-13T19:17:58.245Z,35.88
2023-01-13T19:20:25.929Z,37.20
2023-01-13T19:22:58.438Z,37.30
2023-01-13T19:25:28.407Z,37.10
2023-01-13T19:27:55.803Z,33.88
2023-01-13T19:30:23.387Z,34.85
2023-01-13T19:32:51.281Z,32.63
2023-01-13T19:35:19.959Z,33.40
2023-01-13T19:37:47.443Z,33.08
2023-01-13T19:40:15.792Z,32.72
2023-01-13T19:43:02.628Z,35.33
2023-01-13T19:45:32.220Z,34.58
2023-01-13T19:48:05.273Z,33.38
2023-01-13T19:50:39.715Z,33.05
2023-01-13T19:53:10.644Z,32.72
2023-01-13T19:55:44.001Z,34.70
2023-01-13T19:58:11.536Z,35.08
2023-01-13T20:00:46.811Z,32.95
2023-01-13T20:03:20.708Z,33.72
2023-01-13T20:05:48.335Z,31.38
2023-01-13T20:08:16.422Z,31.50
2023-01-13T20:10:45.963Z,31.85
2023-01-13T20:13:14.298Z,28.23
2023-01-13T20:15:42.460Z,29.33
2023-01-13T20:18:10.091Z,27.73
2023-01-13T20:20:37.776Z,29.25
2023-01-13T20:23:05.371Z,30.00
2023-01-13T20:25:32.906Z,29.17
2023-01-13T20:28:02.224Z,29.35
2023-01-13T20:30:29.836Z,27.92
2023-01-13T20:32:57.745Z,33.00
2023-01-13T20:35:30.984Z,33.80
2023-01-13T20:37:59.297Z,31.95
2023-01-13T20:40:27.710Z,28.10
2023-01-13T20:42:56.883Z,27.85
2023-01-13T20:45:26.162Z,26.13
2023-01-13T20:47:55.551Z,27.10
2023-01-13T20:50:24.758Z,24.92
2023-01-13T20:52:53.216Z,25.77
2023-01-13T20:55:22.671Z,25.75
2023-01-13T20:57:51.209Z,26.25
2023-01-13T21:00:22.830Z,27.85
2023-01-13T21:02:50.789Z,25.98
2023-01-13T21:05:20.230Z,24.85
2023-01-13T21:07:49.645Z,22.92
2023-01-13T21:10:20.131Z,20.88
2023-01-13T21:13:07.811Z,22.08
2023-01-13T21:15:40.489Z,22.67
2023-01-13T21:18:26.577Z,19.98
2023-01-13T21:21:11.545Z,23.27
2023-01-13T21:23:42.307Z,24.60
2023-01-13T21:26:11.322Z,25.83
2023-01-13T21:28:38.846Z,25.95
2023-01-13T21:31:08.755Z,26.17
2023-01-13T21:33:37.143Z,23.65
2023-01-13T21:36:15.113Z,31.70
2023-01-13T21:38:42.683Z,29.70
2023-01-13T21:41:13.028Z,47.92
2023-01-13T21:44:01.568Z,40.58
2023-01-13T21:46:47.376Z,52.13
2023-01-13T21:49:14.819Z,41.80
2023-01-13T21:51:43.908Z,27.40
2023-01-13T21:54:12.558Z,24.02
2023-01-13T21:56:39.967Z,34.78
2023-01-13T21:59:07.443Z,37.92
2023-01-13T22:01:34.997Z,34.47
2023-01-13T22:04:22.400Z,31.67
2023-01-13T22:06:49.973Z,29.70
2023-01-13T22:09:17.421Z,29.65
2023-01-13T22:11:44.864Z,33.15
2023-01-13T22:14:14.000Z,30.38
2023-01-13T22:16:49.141Z,28.88
2023-01-13T22:19:18.282Z,28.67
2023-01-13T22:21:45.792Z,27.95
2023-01-13T22:24:13.367Z,26.38
2023-01-13T22:26:40.965Z,24.33
2023-01-13T22:29:08.399Z,21.95
2023-01-13T22:31:35.875Z,19.75
2023-01-13T22:34:03.479Z,19.75
2023-01-13T22:36:31.012Z,19.85
2023-01-13T22:39:00.665Z,21.15
2023-01-13T22:41:28.250Z,21.98
2023-01-13T22:43:55.745Z,19.27
2023-01-13T22:46:23.643Z,18.77
2023-01-13T22:48:53.870Z,21.88
2023-01-13T22:51:22.906Z,22.50
2023-01-13T22:53:51.209Z,17.83
2023-01-13T22:56:21.480Z,19.83
2023-01-13T22:58:53.922Z,17.40
2023-01-13T23:01:21.983Z,18.95
2023-01-13T23:03:50.004Z,17.45
2023-01-13T23:06:19.419Z,17.90
2023-01-13T23:08:47.809Z,20.65
2023-01-13T23:11:17.323Z,20.88
2023-01-13T23:13:45.157Z,21.42
2023-01-13T23:16:15.606Z,5.00
2023-01-13T23:18:45.366Z,19.48
2023-01-13T23:21:15.857Z,21.15
2023-01-13T23:23:43.702Z,24.35
2023-01-13T23:26:12.306Z,48.90
2023-01-13T23:28:39.754Z,23.45
2023-01-13T23:31:08.334Z,17.58
2023-01-13T23:33:37.860Z,21.02
2023-01-13T23:36:07.332Z,23.20
2023-01-13T23:38:34.968Z,22.88
2023-01-13T23:41:06.677Z,25.10
2023-01-13T23:43:34.821Z,25.00
2023-01-13T23:46:06.066Z,30.00
2023-01-13T23:48:34.166Z,37.90
2023-01-13T23:51:04.656Z,33.53
2023-01-13T23:53:40.141Z,36.25
2023-01-13T23:56:13.710Z,38.85
2023-01-13T23:58:42.629Z,36.20
